Аэропорт
Нижневартовск (USNN)

 USNN / NJC
ЗЦ Екатеринбург
Тюмень (USTV)
Тюмень (USTV)
 60.94930, 76.48360  / 177 ft

 USNN 250400Z 15007MPS 9999 OVC017 M05/M08 Q1018 R21/420265 NOSIG RMK QFE758
 TAF USNN 242300Z 2500/2524 16005G11MPS 9999 BKN017 TEMPO 2500/2506 5000 -SHSN FEW007 BKN015CB BECMG 2506/2508 14006G14MPS
USNN_j_0220
показать схемы
Название сценария Тип сценария Flight Simulator 9 Flight Simulator X Prepar3D v2 Prepar3D v3 Prepar3D v4 Prepar3D v5 xPlane
Nizhnevartovsk USNN (P3Dv4.4+) бесплатный
Nizhnevartovsk USNN by Aleksei Nelaev бесплатный


2020 © VATRUS division (Privacy Policy)